sensor_id;sensor_type;location;lat;lon;timestamp;temperature;humidity
7143;DHT22;3613;48.902;9.204;2022-07-10T00:00:45;15.70;99.90
7143;DHT22;3613;48.902;9.204;2022-07-10T00:03:11;15.60;99.90
7143;DHT22;3613;48.902;9.204;2022-07-10T00:05:39;15.60;99.90
7143;DHT22;3613;48.902;9.204;2022-07-10T00:08:09;15.70;99.90
7143;DHT22;3613;48.902;9.204;2022-07-10T00:10:37;15.70;99.90
7143;DHT22;3613;48.902;9.204;2022-07-10T00:13:03;15.70;99.90
7143;DHT22;3613;48.902;9.204;2022-07-10T00:15:28;15.70;99.90
7143;DHT22;3613;48.902;9.204;2022-07-10T00:17:57;15.60;99.90
7143;DHT22;3613;48.902;9.204;2022-07-10T00:20:24;15.60;99.90
7143;DHT22;3613;48.902;9.204;2022-07-10T00:22:52;15.50;99.90
7143;DHT22;3613;48.902;9.204;2022-07-10T00:25:20;15.50;99.90
7143;DHT22;3613;48.902;9.204;2022-07-10T00:27:46;16.60;99.90
7143;DHT22;3613;48.902;9.204;2022-07-10T00:30:14;15.40;99.90
7143;DHT22;3613;48.902;9.204;2022-07-10T00:32:42;15.30;99.90
7143;DHT22;3613;48.902;9.204;2022-07-10T00:35:08;15.30;99.90
7143;DHT22;3613;48.902;9.204;2022-07-10T00:37:36;15.30;99.90
7143;DHT22;3613;48.902;9.204;2022-07-10T00:40:04;15.20;99.90
7143;DHT22;3613;48.902;9.204;2022-07-10T00:42:30;15.20;99.90
7143;DHT22;3613;48.902;9.204;2022-07-10T00:44:56;15.20;99.90
7143;DHT22;3613;48.902;9.204;2022-07-10T00:47:22;15.10;99.90
7143;DHT22;3613;48.902;9.204;2022-07-10T00:49:50;15.10;99.90
7143;DHT22;3613;48.902;9.204;2022-07-10T00:52:17;15.10;99.90
7143;DHT22;3613;48.902;9.204;2022-07-10T00:54:45;15.10;99.90
7143;DHT22;3613;48.902;9.204;2022-07-10T00:57:13;15.00;99.90
7143;DHT22;3613;48.902;9.204;2022-07-10T00:59:40;15.00;99.90
7143;DHT22;3613;48.902;9.204;2022-07-10T01:02:06;15.00;99.90
7143;DHT22;3613;48.902;9.204;2022-07-10T01:04:32;15.00;99.90
7143;DHT22;3613;48.902;9.204;2022-07-10T01:06:59;14.90;99.90
7143;DHT22;3613;48.902;9.204;2022-07-10T01:09:25;14.90;99.90
7143;DHT22;3613;48.902;9.204;2022-07-10T01:11:51;14.90;99.90
7143;DHT22;3613;48.902;9.204;2022-07-10T01:14:16;14.90;99.90
7143;DHT22;3613;48.902;9.204;2022-07-10T01:16:44;15.00;99.90
7143;DHT22;3613;48.902;9.204;2022-07-10T01:19:11;15.10;99.90
7143;DHT22;3613;48.902;9.204;2022-07-10T01:21:41;15.20;99.90
7143;DHT22;3613;48.902;9.204;2022-07-10T01:24:08;15.20;99.90
7143;DHT22;3613;48.902;9.204;2022-07-10T01:26:36;15.20;99.90
7143;DHT22;3613;48.902;9.204;2022-07-10T01:29:08;15.20;99.90
7143;DHT22;3613;48.902;9.204;2022-07-10T01:31:34;15.20;99.90
7143;DHT22;3613;48.902;9.204;2022-07-10T01:34:01;15.10;99.90
7143;DHT22;3613;48.902;9.204;2022-07-10T01:36:29;15.10;99.90
7143;DHT22;3613;48.902;9.204;2022-07-10T01:38:58;15.00;99.90
7143;DHT22;3613;48.902;9.204;2022-07-10T01:41:25;15.00;99.90
7143;DHT22;3613;48.902;9.204;2022-07-10T01:43:53;15.00;99.90
7143;DHT22;3613;48.902;9.204;2022-07-10T01:46:21;15.00;99.90
7143;DHT22;3613;48.902;9.204;2022-07-10T01:48:47;14.90;99.90
7143;DHT22;3613;48.902;9.204;2022-07-10T01:51:13;14.90;99.90
7143;DHT22;3613;48.902;9.204;2022-07-10T01:53:39;14.80;99.90
7143;DHT22;3613;48.902;9.204;2022-07-10T01:56:08;14.80;99.90
7143;DHT22;3613;48.902;9.204;2022-07-10T01:58:39;13.90;99.90
7143;DHT22;3613;48.902;9.204;2022-07-10T02:01:05;14.80;99.90
7143;DHT22;3613;48.902;9.204;2022-07-10T02:03:31;14.80;99.90
7143;DHT22;3613;48.902;9.204;2022-07-10T02:06:18;14.80;99.90
7143;DHT22;3613;48.902;9.204;2022-07-10T02:08:44;14.90;99.90
7143;DHT22;3613;48.902;9.204;2022-07-10T02:11:12;15.00;99.90
7143;DHT22;3613;48.902;9.204;2022-07-10T02:13:38;15.00;99.90
7143;DHT22;3613;48.902;9.204;2022-07-10T02:16:04;15.00;99.90
7143;DHT22;3613;48.902;9.204;2022-07-10T02:18:32;15.10;99.90
7143;DHT22;3613;48.902;9.204;2022-07-10T02:20:58;15.10;99.90
7143;DHT22;3613;48.902;9.204;2022-07-10T02:23:26;15.00;99.90
7143;DHT22;3613;48.902;9.204;2022-07-10T02:25:51;15.00;99.90
7143;DHT22;3613;48.902;9.204;2022-07-10T02:28:19;15.00;99.90
7143;DHT22;3613;48.902;9.204;2022-07-10T02:30:44;14.90;99.90
7143;DHT22;3613;48.902;9.204;2022-07-10T02:33:10;14.90;99.90
7143;DHT22;3613;48.902;9.204;2022-07-10T02:35:36;14.80;99.90
7143;DHT22;3613;48.902;9.204;2022-07-10T02:38:06;14.90;99.90
7143;DHT22;3613;48.902;9.204;2022-07-10T02:40:31;14.80;99.90
7143;DHT22;3613;48.902;9.204;2022-07-10T02:42:57;14.70;99.90
7143;DHT22;3613;48.902;9.204;2022-07-10T02:45:23;14.90;99.90
7143;DHT22;3613;48.902;9.204;2022-07-10T02:47:51;14.90;99.90
7143;DHT22;3613;48.902;9.204;2022-07-10T02:50:16;14.90;99.90
7143;DHT22;3613;48.902;9.204;2022-07-10T02:52:42;15.00;99.90
7143;DHT22;3613;48.902;9.204;2022-07-10T02:55:09;14.90;99.90
7143;DHT22;3613;48.902;9.204;2022-07-10T02:57:34;14.90;99.90
7143;DHT22;3613;48.902;9.204;2022-07-10T03:00:00;14.90;99.90
7143;DHT22;3613;48.902;9.204;2022-07-10T03:02:26;14.80;99.90
7143;DHT22;3613;48.902;9.204;2022-07-10T03:04:54;14.70;99.90
7143;DHT22;3613;48.902;9.204;2022-07-10T03:07:19;14.60;99.90
7143;DHT22;3613;48.902;9.204;2022-07-10T03:09:50;14.60;99.90
7143;DHT22;3613;48.902;9.204;2022-07-10T03:12:15;14.50;99.90
7143;DHT22;3613;48.902;9.204;2022-07-10T03:14:41;14.50;99.90
7143;DHT22;3613;48.902;9.204;2022-07-10T03:17:09;14.40;99.90
7143;DHT22;3613;48.902;9.204;2022-07-10T03:19:34;14.50;99.90
7143;DHT22;3613;48.902;9.204;2022-07-10T03:22:02;14.40;99.90
7143;DHT22;3613;48.902;9.204;2022-07-10T03:24:30;14.40;99.90
7143;DHT22;3613;48.902;9.204;2022-07-10T03:26:56;14.40;99.90
7143;DHT22;3613;48.902;9.204;2022-07-10T03:29:24;14.40;99.90
7143;DHT22;3613;48.902;9.204;2022-07-10T03:31:49;14.50;99.90
7143;DHT22;3613;48.902;9.204;2022-07-10T03:34:15;14.60;99.90
7143;DHT22;3613;48.902;9.204;2022-07-10T03:36:41;14.70;99.90
7143;DHT22;3613;48.902;9.204;2022-07-10T03:39:06;14.80;99.90
7143;DHT22;3613;48.902;9.204;2022-07-10T03:41:34;14.90;99.90
7143;DHT22;3613;48.902;9.204;2022-07-10T03:44:02;15.00;99.90
7143;DHT22;3613;48.902;9.204;2022-07-10T03:46:27;15.10;99.90
7143;DHT22;3613;48.902;9.204;2022-07-10T03:48:53;15.20;99.90
7143;DHT22;3613;48.902;9.204;2022-07-10T03:51:21;15.30;99.90
7143;DHT22;3613;48.902;9.204;2022-07-10T03:53:46;15.30;99.90
7143;DHT22;3613;48.902;9.204;2022-07-10T03:56:12;15.30;99.90
7143;DHT22;3613;48.902;9.204;2022-07-10T03:58:58;15.40;99.90
7143;DHT22;3613;48.902;9.204;2022-07-10T04:01:23;15.70;99.90
7143;DHT22;3613;48.902;9.204;2022-07-10T04:03:49;16.00;99.90
7143;DHT22;3613;48.902;9.204;2022-07-10T04:06:14;16.30;99.90
7143;DHT22;3613;48.902;9.204;2022-07-10T04:08:40;16.60;99.90
7143;DHT22;3613;48.902;9.204;2022-07-10T04:11:05;17.00;99.90
7143;DHT22;3613;48.902;9.204;2022-07-10T04:13:31;17.30;99.90
7143;DHT22;3613;48.902;9.204;2022-07-10T04:16:03;17.30;99.90
7143;DHT22;3613;48.902;9.204;2022-07-10T04:18:28;17.30;99.90
7143;DHT22;3613;48.902;9.204;2022-07-10T04:20:54;17.10;99.90
7143;DHT22;3613;48.902;9.204;2022-07-10T04:23:21;16.90;99.90
7143;DHT22;3613;48.902;9.204;2022-07-10T04:25:47;16.80;99.90
7143;DHT22;3613;48.902;9.204;2022-07-10T04:28:13;16.60;99.90
7143;DHT22;3613;48.902;9.204;2022-07-10T04:30:38;16.50;99.90
7143;DHT22;3613;48.902;9.204;2022-07-10T04:33:04;16.70;99.90
7143;DHT22;3613;48.902;9.204;2022-07-10T04:35:29;17.10;99.90
7143;DHT22;3613;48.902;9.204;2022-07-10T04:37:55;17.30;99.90
7143;DHT22;3613;48.902;9.204;2022-07-10T04:40:21;17.40;99.90
7143;DHT22;3613;48.902;9.204;2022-07-10T04:42:46;17.30;99.90
7143;DHT22;3613;48.902;9.204;2022-07-10T04:45:12;17.30;99.90
7143;DHT22;3613;48.902;9.204;2022-07-10T04:47:37;17.30;99.90
7143;DHT22;3613;48.902;9.204;2022-07-10T04:50:03;17.60;99.90
7143;DHT22;3613;48.902;9.204;2022-07-10T04:52:29;17.80;99.90
7143;DHT22;3613;48.902;9.204;2022-07-10T04:54:55;18.00;99.90
7143;DHT22;3613;48.902;9.204;2022-07-10T04:57:23;18.20;99.90
7143;DHT22;3613;48.902;9.204;2022-07-10T04:59:51;18.30;99.90
7143;DHT22;3613;48.902;9.204;2022-07-10T05:02:16;18.30;99.90
7143;DHT22;3613;48.902;9.204;2022-07-10T05:04:42;18.50;99.90
7143;DHT22;3613;48.902;9.204;2022-07-10T05:07:08;19.30;99.90
7143;DHT22;3613;48.902;9.204;2022-07-10T05:09:33;20.30;99.90
7143;DHT22;3613;48.902;9.204;2022-07-10T05:11:59;21.00;99.90
7143;DHT22;3613;48.902;9.204;2022-07-10T05:14:24;21.90;99.90
7143;DHT22;3613;48.902;9.204;2022-07-10T05:16:51;22.60;99.90
7143;DHT22;3613;48.902;9.204;2022-07-10T05:19:17;23.00;99.90
7143;DHT22;3613;48.902;9.204;2022-07-10T05:21:42;24.80;99.90
7143;DHT22;3613;48.902;9.204;2022-07-10T05:24:08;23.10;99.90
7143;DHT22;3613;48.902;9.204;2022-07-10T05:26:33;22.80;99.90
7143;DHT22;3613;48.902;9.204;2022-07-10T05:28:59;22.30;99.90
7143;DHT22;3613;48.902;9.204;2022-07-10T05:31:27;21.80;99.90
7143;DHT22;3613;48.902;9.204;2022-07-10T05:33:53;21.30;99.90
7143;DHT22;3613;48.902;9.204;2022-07-10T05:36:18;20.50;99.90
7143;DHT22;3613;48.902;9.204;2022-07-10T05:38:46;19.90;99.90
7143;DHT22;3613;48.902;9.204;2022-07-10T05:41:12;19.50;99.90
7143;DHT22;3613;48.902;9.204;2022-07-10T05:43:40;19.00;99.90
7143;DHT22;3613;48.902;9.204;2022-07-10T05:46:05;18.50;99.90
7143;DHT22;3613;48.902;9.204;2022-07-10T05:48:34;18.20;99.90
7143;DHT22;3613;48.902;9.204;2022-07-10T05:50:59;18.30;99.90
7143;DHT22;3613;48.902;9.204;2022-07-10T05:53:27;18.80;99.90
7143;DHT22;3613;48.902;9.204;2022-07-10T05:55:53;19.40;99.90
7143;DHT22;3613;48.902;9.204;2022-07-10T05:58:18;20.10;99.90
7143;DHT22;3613;48.902;9.204;2022-07-10T06:00:44;20.40;99.90
7143;DHT22;3613;48.902;9.204;2022-07-10T06:03:11;20.20;99.90
7143;DHT22;3613;48.902;9.204;2022-07-10T06:05:38;19.90;99.90
7143;DHT22;3613;48.902;9.204;2022-07-10T06:08:04;20.60;99.90
7143;DHT22;3613;48.902;9.204;2022-07-10T06:10:29;20.90;99.90
7143;DHT22;3613;48.902;9.204;2022-07-10T06:12:55;20.80;99.90
7143;DHT22;3613;48.902;9.204;2022-07-10T06:15:21;20.50;99.90
7143;DHT22;3613;48.902;9.204;2022-07-10T06:17:46;20.40;99.90
7143;DHT22;3613;48.902;9.204;2022-07-10T06:20:12;20.00;99.90
7143;DHT22;3613;48.902;9.204;2022-07-10T06:22:38;19.30;99.90
7143;DHT22;3613;48.902;9.204;2022-07-10T06:25:07;19.30;99.90
7143;DHT22;3613;48.902;9.204;2022-07-10T06:27:33;19.10;99.90
7143;DHT22;3613;48.902;9.204;2022-07-10T06:29:59;19.20;99.90
7143;DHT22;3613;48.902;9.204;2022-07-10T06:32:25;18.80;99.90
7143;DHT22;3613;48.902;9.204;2022-07-10T06:34:52;18.70;99.90
7143;DHT22;3613;48.902;9.204;2022-07-10T06:37:21;18.50;99.90
7143;DHT22;3613;48.902;9.204;2022-07-10T06:39:47;18.60;99.90
7143;DHT22;3613;48.902;9.204;2022-07-10T06:42:13;18.50;99.90
7143;DHT22;3613;48.902;9.204;2022-07-10T06:44:39;18.40;99.90
7143;DHT22;3613;48.902;9.204;2022-07-10T06:47:06;18.00;99.90
7143;DHT22;3613;48.902;9.204;2022-07-10T06:49:51;17.70;99.90
7143;DHT22;3613;48.902;9.204;2022-07-10T06:52:19;17.00;99.90
7143;DHT22;3613;48.902;9.204;2022-07-10T06:54:45;16.90;99.90
7143;DHT22;3613;48.902;9.204;2022-07-10T06:57:11;17.00;99.90
7143;DHT22;3613;48.902;9.204;2022-07-10T06:59:37;17.00;99.90
7143;DHT22;3613;48.902;9.204;2022-07-10T07:02:05;17.10;99.90
7143;DHT22;3613;48.902;9.204;2022-07-10T07:04:31;17.30;99.90
7143;DHT22;3613;48.902;9.204;2022-07-10T07:06:59;17.50;99.90
7143;DHT22;3613;48.902;9.204;2022-07-10T07:09:24;17.60;99.90
7143;DHT22;3613;48.902;9.204;2022-07-10T07:11:50;17.50;99.90
7143;DHT22;3613;48.902;9.204;2022-07-10T07:14:16;17.40;99.90
7143;DHT22;3613;48.902;9.204;2022-07-10T07:16:41;17.40;99.90
7143;DHT22;3613;48.902;9.204;2022-07-10T07:19:11;17.10;99.90
7143;DHT22;3613;48.902;9.204;2022-07-10T07:21:45;16.70;99.90
7143;DHT22;3613;48.902;9.204;2022-07-10T07:24:29;16.70;99.90
7143;DHT22;3613;48.902;9.204;2022-07-10T07:26:58;16.80;99.90
7143;DHT22;3613;48.902;9.204;2022-07-10T07:29:26;17.00;99.90
7143;DHT22;3613;48.902;9.204;2022-07-10T07:31:51;17.30;99.90
7143;DHT22;3613;48.902;9.204;2022-07-10T07:34:19;17.50;99.90
7143;DHT22;3613;48.902;9.204;2022-07-10T07:36:45;17.50;99.90
7143;DHT22;3613;48.902;9.204;2022-07-10T07:39:13;17.60;99.90
7143;DHT22;3613;48.902;9.204;2022-07-10T07:41:41;17.60;99.90
7143;DHT22;3613;48.902;9.204;2022-07-10T07:44:06;17.70;99.90
7143;DHT22;3613;48.902;9.204;2022-07-10T07:46:37;17.70;99.90
7143;DHT22;3613;48.902;9.204;2022-07-10T07:49:02;17.80;99.90
7143;DHT22;3613;48.902;9.204;2022-07-10T07:51:28;17.70;99.90
7143;DHT22;3613;48.902;9.204;2022-07-10T07:53:53;18.00;99.90
7143;DHT22;3613;48.902;9.204;2022-07-10T07:56:19;18.50;99.90
7143;DHT22;3613;48.902;9.204;2022-07-10T07:58:47;18.90;99.90
7143;DHT22;3613;48.902;9.204;2022-07-10T08:01:15;19.60;99.90
7143;DHT22;3613;48.902;9.204;2022-07-10T08:03:47;19.50;99.90
7143;DHT22;3613;48.902;9.204;2022-07-10T08:06:17;19.60;99.90
7143;DHT22;3613;48.902;9.204;2022-07-10T08:08:48;19.90;99.90
7143;DHT22;3613;48.902;9.204;2022-07-10T08:11:13;20.30;99.90
7143;DHT22;3613;48.902;9.204;2022-07-10T08:13:41;20.90;99.90
7143;DHT22;3613;48.902;9.204;2022-07-10T08:16:08;22.10;99.90
7143;DHT22;3613;48.902;9.204;2022-07-10T08:18:37;21.60;99.90
7143;DHT22;3613;48.902;9.204;2022-07-10T08:21:05;22.50;99.90
7143;DHT22;3613;48.902;9.204;2022-07-10T08:23:30;21.70;99.90
7143;DHT22;3613;48.902;9.204;2022-07-10T08:25:56;21.60;99.90
7143;DHT22;3613;48.902;9.204;2022-07-10T08:28:24;20.70;99.90
7143;DHT22;3613;48.902;9.204;2022-07-10T08:30:49;21.70;99.90
7143;DHT22;3613;48.902;9.204;2022-07-10T08:33:17;22.40;99.90
7143;DHT22;3613;48.902;9.204;2022-07-10T08:35:43;22.40;99.90
7143;DHT22;3613;48.902;9.204;2022-07-10T08:38:08;21.80;99.90
7143;DHT22;3613;48.902;9.204;2022-07-10T08:40:38;21.80;99.90
7143;DHT22;3613;48.902;9.204;2022-07-10T08:43:05;21.50;99.90
7143;DHT22;3613;48.902;9.204;2022-07-10T08:45:32;21.50;99.90
7143;DHT22;3613;48.902;9.204;2022-07-10T08:48:02;21.20;99.90
7143;DHT22;3613;48.902;9.204;2022-07-10T08:50:33;21.10;99.90
7143;DHT22;3613;48.902;9.204;2022-07-10T08:53:12;20.50;99.90
7143;DHT22;3613;48.902;9.204;2022-07-10T08:55:38;20.50;99.90
7143;DHT22;3613;48.902;9.204;2022-07-10T08:58:08;20.70;99.90
7143;DHT22;3613;48.902;9.204;2022-07-10T09:00:35;20.40;99.90
7143;DHT22;3613;48.902;9.204;2022-07-10T09:03:01;20.90;99.90
7143;DHT22;3613;48.902;9.204;2022-07-10T09:05:27;20.80;99.90
7143;DHT22;3613;48.902;9.204;2022-07-10T09:07:53;21.00;99.90
7143;DHT22;3613;48.902;9.204;2022-07-10T09:10:21;20.90;99.90
7143;DHT22;3613;48.902;9.204;2022-07-10T09:12:57;21.10;99.90
7143;DHT22;3613;48.902;9.204;2022-07-10T09:15:27;21.40;99.90
7143;DHT22;3613;48.902;9.204;2022-07-10T09:18:05;21.70;99.90
7143;DHT22;3613;48.902;9.204;2022-07-10T09:20:37;21.70;99.90
7143;DHT22;3613;48.902;9.204;2022-07-10T09:23:24;22.00;99.90
7143;DHT22;3613;48.902;9.204;2022-07-10T09:25:52;22.70;99.10
7143;DHT22;3613;48.902;9.204;2022-07-10T09:28:19;23.40;96.90
7143;DHT22;3613;48.902;9.204;2022-07-10T09:30:46;23.80;95.70
7143;DHT22;3613;48.902;9.204;2022-07-10T09:41:30;23.80;94.50
7143;DHT22;3613;48.902;9.204;2022-07-10T09:46:32;22.50;95.30
7143;DHT22;3613;48.902;9.204;2022-07-10T09:51:34;22.80;95.50
7143;DHT22;3613;48.902;9.204;2022-07-10T09:54:01;23.30;95.80
7143;DHT22;3613;48.902;9.204;2022-07-10T09:56:32;24.10;93.00
7143;DHT22;3613;48.902;9.204;2022-07-10T09:59:00;24.30;92.10
7143;DHT22;3613;48.902;9.204;2022-07-10T10:01:31;23.50;93.20
7143;DHT22;3613;48.902;9.204;2022-07-10T10:03:58;23.10;93.40
7143;DHT22;3613;48.902;9.204;2022-07-10T10:06:26;22.90;94.10
7143;DHT22;3613;48.902;9.204;2022-07-10T10:09:07;22.90;93.80
7143;DHT22;3613;48.902;9.204;2022-07-10T10:11:36;22.40;94.80
7143;DHT22;3613;48.902;9.204;2022-07-10T10:14:07;21.80;94.30
7143;DHT22;3613;48.902;9.204;2022-07-10T10:16:33;21.70;94.70
7143;DHT22;3613;48.902;9.204;2022-07-10T10:18:59;22.90;94.50
7143;DHT22;3613;48.902;9.204;2022-07-10T10:21:43;23.10;93.90
7143;DHT22;3613;48.902;9.204;2022-07-10T10:24:09;23.20;93.00
7143;DHT22;3613;48.902;9.204;2022-07-10T10:26:38;22.90;93.70
7143;DHT22;3613;48.902;9.204;2022-07-10T10:29:06;23.50;93.90
7143;DHT22;3613;48.902;9.204;2022-07-10T10:31:32;24.40;92.70
7143;DHT22;3613;48.902;9.204;2022-07-10T10:33:58;25.20;91.00
7143;DHT22;3613;48.902;9.204;2022-07-10T10:41:44;24.10;91.40
7143;DHT22;3613;48.902;9.204;2022-07-10T10:49:19;22.80;90.90
7143;DHT22;3613;48.902;9.204;2022-07-10T10:52:04;21.90;92.80
7143;DHT22;3613;48.902;9.204;2022-07-10T10:57:22;21.50;96.20
7143;DHT22;3613;48.902;9.204;2022-07-10T10:59:50;21.50;97.00
7143;DHT22;3613;48.902;9.204;2022-07-10T11:04:50;22.70;96.00
7143;DHT22;3613;48.902;9.204;2022-07-10T11:15:22;23.10;92.50
7143;DHT22;3613;48.902;9.204;2022-07-10T11:17:48;23.60;93.40
7143;DHT22;3613;48.902;9.204;2022-07-10T11:20:13;23.90;91.90
7143;DHT22;3613;48.902;9.204;2022-07-10T11:25:52;24.60;91.30
7143;DHT22;3613;48.902;9.204;2022-07-10T11:31:06;24.40;90.70
7143;DHT22;3613;48.902;9.204;2022-07-10T11:33:41;24.10;90.20
7143;DHT22;3613;48.902;9.204;2022-07-10T11:36:18;23.40;90.60
7143;DHT22;3613;48.902;9.204;2022-07-10T11:38:45;22.80;91.60
7143;DHT22;3613;48.902;9.204;2022-07-10T11:41:19;22.50;92.00
7143;DHT22;3613;48.902;9.204;2022-07-10T11:43:57;22.30;92.30
7143;DHT22;3613;48.902;9.204;2022-07-10T11:46:27;22.80;92.20
7143;DHT22;3613;48.902;9.204;2022-07-10T11:48:53;23.90;90.50
7143;DHT22;3613;48.902;9.204;2022-07-10T11:51:34;25.30;88.30
7143;DHT22;3613;48.902;9.204;2022-07-10T11:56:31;24.10;87.10
7143;DHT22;3613;48.902;9.204;2022-07-10T11:59:03;23.90;87.60
7143;DHT22;3613;48.902;9.204;2022-07-10T12:01:33;23.90;87.30
7143;DHT22;3613;48.902;9.204;2022-07-10T12:04:01;24.60;86.60
7143;DHT22;3613;48.902;9.204;2022-07-10T12:06:28;25.00;83.70
7143;DHT22;3613;48.902;9.204;2022-07-10T12:08:54;25.90;82.70
7143;DHT22;3613;48.902;9.204;2022-07-10T12:11:21;26.00;82.30
7143;DHT22;3613;48.902;9.204;2022-07-10T12:13:51;25.20;82.60
7143;DHT22;3613;48.902;9.204;2022-07-10T12:16:20;24.80;83.00
7143;DHT22;3613;48.902;9.204;2022-07-10T12:18:49;24.40;83.60
7143;DHT22;3613;48.902;9.204;2022-07-10T12:21:17;23.50;87.20
7143;DHT22;3613;48.902;9.204;2022-07-10T12:23:44;23.40;87.30
7143;DHT22;3613;48.902;9.204;2022-07-10T12:26:14;24.10;86.60
7143;DHT22;3613;48.902;9.204;2022-07-10T12:29:01;25.80;83.40
7143;DHT22;3613;48.902;9.204;2022-07-10T12:31:32;26.20;79.70
7143;DHT22;3613;48.902;9.204;2022-07-10T12:34:04;25.90;80.40
7143;DHT22;3613;48.902;9.204;2022-07-10T12:36:52;26.00;79.80
7143;DHT22;3613;48.902;9.204;2022-07-10T12:39:24;26.60;78.00
7143;DHT22;3613;48.902;9.204;2022-07-10T12:44:36;25.40;78.30
7143;DHT22;3613;48.902;9.204;2022-07-10T12:47:06;25.60;77.20
7143;DHT22;3613;48.902;9.204;2022-07-10T12:49:56;26.50;76.20
7143;DHT22;3613;48.902;9.204;2022-07-10T12:52:41;27.40;75.70
7143;DHT22;3613;48.902;9.204;2022-07-10T12:55:17;27.00;74.50
7143;DHT22;3613;48.902;9.204;2022-07-10T12:57:55;27.40;74.70
7143;DHT22;3613;48.902;9.204;2022-07-10T13:00:31;27.00;73.00
7143;DHT22;3613;48.902;9.204;2022-07-10T13:03:00;26.50;73.90
7143;DHT22;3613;48.902;9.204;2022-07-10T13:05:40;26.70;73.10
7143;DHT22;3613;48.902;9.204;2022-07-10T13:08:18;24.60;74.80
7143;DHT22;3613;48.902;9.204;2022-07-10T13:10:52;23.70;78.40
7143;DHT22;3613;48.902;9.204;2022-07-10T13:13:18;24.70;79.50
7143;DHT22;3613;48.902;9.204;2022-07-10T13:15:44;25.10;77.60
7143;DHT22;3613;48.902;9.204;2022-07-10T13:18:19;25.30;76.00
7143;DHT22;3613;48.902;9.204;2022-07-10T13:20:51;24.70;77.60
7143;DHT22;3613;48.902;9.204;2022-07-10T13:23:17;25.30;77.50
7143;DHT22;3613;48.902;9.204;2022-07-10T13:25:50;27.10;73.90
7143;DHT22;3613;48.902;9.204;2022-07-10T13:28:19;28.40;70.00
7143;DHT22;3613;48.902;9.204;2022-07-10T13:30:45;29.70;67.70
7143;DHT22;3613;48.902;9.204;2022-07-10T13:33:11;30.20;65.60
7143;DHT22;3613;48.902;9.204;2022-07-10T13:35:38;29.90;66.00
7143;DHT22;3613;48.902;9.204;2022-07-10T13:38:04;28.00;67.50
7143;DHT22;3613;48.902;9.204;2022-07-10T13:40:35;27.40;69.40
7143;DHT22;3613;48.902;9.204;2022-07-10T13:43:02;26.80;68.80
7143;DHT22;3613;48.902;9.204;2022-07-10T13:45:29;27.60;70.10
7143;DHT22;3613;48.902;9.204;2022-07-10T13:47:59;28.60;66.90
7143;DHT22;3613;48.902;9.204;2022-07-10T13:50:27;28.50;66.00
7143;DHT22;3613;48.902;9.204;2022-07-10T13:52:55;28.10;65.30
7143;DHT22;3613;48.902;9.204;2022-07-10T13:55:21;28.20;65.20
7143;DHT22;3613;48.902;9.204;2022-07-10T13:57:51;26.90;66.80
7143;DHT22;3613;48.902;9.204;2022-07-10T14:00:16;26.10;68.70
7143;DHT22;3613;48.902;9.204;2022-07-10T14:02:44;26.90;68.90
7143;DHT22;3613;48.902;9.204;2022-07-10T14:05:10;26.30;68.60
7143;DHT22;3613;48.902;9.204;2022-07-10T14:07:36;26.20;70.70
7143;DHT22;3613;48.902;9.204;2022-07-10T14:10:03;27.10;68.30
7143;DHT22;3613;48.902;9.204;2022-07-10T14:12:28;27.50;67.90
7143;DHT22;3613;48.902;9.204;2022-07-10T14:14:57;27.40;66.70
7143;DHT22;3613;48.902;9.204;2022-07-10T14:17:25;26.90;67.90
7143;DHT22;3613;48.902;9.204;2022-07-10T14:19:50;27.00;67.30
7143;DHT22;3613;48.902;9.204;2022-07-10T14:22:16;26.10;67.80
7143;DHT22;3613;48.902;9.204;2022-07-10T14:24:42;24.80;70.80
7143;DHT22;3613;48.902;9.204;2022-07-10T14:27:08;24.60;71.90
7143;DHT22;3613;48.902;9.204;2022-07-10T14:29:36;24.80;71.30
7143;DHT22;3613;48.902;9.204;2022-07-10T14:32:02;24.20;71.70
7143;DHT22;3613;48.902;9.204;2022-07-10T14:34:27;23.30;71.80
7143;DHT22;3613;48.902;9.204;2022-07-10T14:36:54;22.30;73.70
7143;DHT22;3613;48.902;9.204;2022-07-10T14:39:22;22.20;74.70
7143;DHT22;3613;48.902;9.204;2022-07-10T14:41:48;21.90;74.60
7143;DHT22;3613;48.902;9.204;2022-07-10T14:44:13;21.60;76.40
7143;DHT22;3613;48.902;9.204;2022-07-10T14:46:39;21.80;77.20
7143;DHT22;3613;48.902;9.204;2022-07-10T14:49:05;21.70;77.10
7143;DHT22;3613;48.902;9.204;2022-07-10T14:51:32;21.10;77.70
7143;DHT22;3613;48.902;9.204;2022-07-10T14:54:00;21.20;79.40
7143;DHT22;3613;48.902;9.204;2022-07-10T14:56:28;21.30;78.50
7143;DHT22;3613;48.902;9.204;2022-07-10T14:58:54;20.90;78.90
7143;DHT22;3613;48.902;9.204;2022-07-10T15:01:20;20.80;80.00
7143;DHT22;3613;48.902;9.204;2022-07-10T15:03:45;20.90;80.80
7143;DHT22;3613;48.902;9.204;2022-07-10T15:06:11;21.10;80.70
7143;DHT22;3613;48.902;9.204;2022-07-10T15:08:37;21.30;79.20
7143;DHT22;3613;48.902;9.204;2022-07-10T15:11:02;21.20;80.00
7143;DHT22;3613;48.902;9.204;2022-07-10T15:13:30;21.10;78.90
7143;DHT22;3613;48.902;9.204;2022-07-10T15:15:56;20.70;79.60
7143;DHT22;3613;48.902;9.204;2022-07-10T15:18:21;20.80;80.80
7143;DHT22;3613;48.902;9.204;2022-07-10T15:20:47;21.00;79.80
7143;DHT22;3613;48.902;9.204;2022-07-10T15:23:13;21.10;79.70
7143;DHT22;3613;48.902;9.204;2022-07-10T15:25:42;21.20;79.40
7143;DHT22;3613;48.902;9.204;2022-07-10T15:28:09;21.30;80.50
7143;DHT22;3613;48.902;9.204;2022-07-10T15:30:35;21.30;80.10
7143;DHT22;3613;48.902;9.204;2022-07-10T15:33:05;21.40;79.60
7143;DHT22;3613;48.902;9.204;2022-07-10T15:35:34;21.30;80.20
7143;DHT22;3613;48.902;9.204;2022-07-10T15:37:59;21.30;80.00
7143;DHT22;3613;48.902;9.204;2022-07-10T15:40:29;21.10;79.10
7143;DHT22;3613;48.902;9.204;2022-07-10T15:42:55;21.00;79.60
7143;DHT22;3613;48.902;9.204;2022-07-10T15:45:27;21.00;80.30
7143;DHT22;3613;48.902;9.204;2022-07-10T15:47:53;21.00;80.80
7143;DHT22;3613;48.902;9.204;2022-07-10T15:50:19;20.80;80.90
7143;DHT22;3613;48.902;9.204;2022-07-10T15:52:45;20.50;80.80
7143;DHT22;3613;48.902;9.204;2022-07-10T15:55:12;20.50;82.30
7143;DHT22;3613;48.902;9.204;2022-07-10T15:57:40;20.60;81.70
7143;DHT22;3613;48.902;9.204;2022-07-10T16:00:07;20.80;80.60
7143;DHT22;3613;48.902;9.204;2022-07-10T16:02:36;20.80;80.10
7143;DHT22;3613;48.902;9.204;2022-07-10T16:05:04;20.80;81.00
7143;DHT22;3613;48.902;9.204;2022-07-10T16:07:32;20.90;80.80
7143;DHT22;3613;48.902;9.204;2022-07-10T16:09:58;21.20;80.40
7143;DHT22;3613;48.902;9.204;2022-07-10T16:12:26;20.90;80.30
7143;DHT22;3613;48.902;9.204;2022-07-10T16:14:51;20.70;81.50
7143;DHT22;3613;48.902;9.204;2022-07-10T16:17:17;20.70;82.20
7143;DHT22;3613;48.902;9.204;2022-07-10T16:19:43;20.70;81.90
7143;DHT22;3613;48.902;9.204;2022-07-10T16:22:13;20.60;81.80
7143;DHT22;3613;48.902;9.204;2022-07-10T16:24:39;20.50;81.90
7143;DHT22;3613;48.902;9.204;2022-07-10T16:27:24;20.30;82.10
7143;DHT22;3613;48.902;9.204;2022-07-10T16:29:52;20.20;82.70
7143;DHT22;3613;48.902;9.204;2022-07-10T16:32:18;20.30;82.60
7143;DHT22;3613;48.902;9.204;2022-07-10T16:34:45;20.50;81.90
7143;DHT22;3613;48.902;9.204;2022-07-10T16:37:11;20.80;82.70
7143;DHT22;3613;48.902;9.204;2022-07-10T16:39:36;20.90;83.40
7143;DHT22;3613;48.902;9.204;2022-07-10T16:42:02;21.20;83.90
7143;DHT22;3613;48.902;9.204;2022-07-10T16:44:30;21.30;83.50
7143;DHT22;3613;48.902;9.204;2022-07-10T16:46:58;21.40;83.60
7143;DHT22;3613;48.902;9.204;2022-07-10T16:49:24;21.30;83.20
7143;DHT22;3613;48.902;9.204;2022-07-10T16:51:49;21.20;83.30
7143;DHT22;3613;48.902;9.204;2022-07-10T16:54:15;21.10;83.60